createdAt,value
2022-08-26T00:02:52.268Z,11.90
2022-08-26T00:05:55.617Z,11.90
2022-08-26T00:09:00.423Z,11.80
2022-08-26T00:12:05.456Z,12.05
2022-08-26T00:15:14.447Z,11.35
2022-08-26T00:18:22.118Z,12.23
2022-08-26T00:21:28.206Z,12.07
2022-08-26T00:24:33.731Z,12.20
2022-08-26T00:27:37.627Z,12.82
2022-08-26T00:30:43.497Z,12.57
2022-08-26T00:33:49.105Z,12.87
2022-08-26T00:36:53.082Z,13.02
2022-08-26T00:39:57.803Z,12.40
2022-08-26T00:43:09.316Z,12.00
2022-08-26T00:46:17.718Z,12.52
2022-08-26T00:49:24.482Z,13.07
2022-08-26T00:52:27.993Z,12.30
2022-08-26T00:55:37.863Z,12.35
2022-08-26T00:58:43.113Z,12.75
2022-08-26T01:01:47.052Z,11.82
2022-08-26T01:04:55.734Z,12.60
2022-08-26T01:07:59.424Z,12.30
2022-08-26T01:11:04.998Z,12.77
2022-08-26T01:14:09.538Z,12.70
2022-08-26T01:17:13.530Z,12.13
2022-08-26T01:20:31.368Z,12.52
2022-08-26T01:23:39.313Z,13.10
2022-08-26T01:26:44.750Z,13.50
2022-08-26T01:29:50.355Z,12.20
2022-08-26T01:32:55.866Z,12.25
2022-08-26T01:36:00.015Z,13.02
2022-08-26T01:39:05.835Z,13.10
2022-08-26T01:42:14.115Z,13.40
2022-08-26T01:45:20.815Z,12.57
2022-08-26T01:48:29.346Z,12.55
2022-08-26T01:51:37.245Z,12.85
2022-08-26T01:54:41.968Z,12.52
2022-08-26T01:57:54.635Z,13.13
2022-08-26T02:01:00.292Z,12.98
2022-08-26T02:04:17.416Z,12.70
2022-08-26T02:07:24.289Z,12.50
2022-08-26T02:10:31.576Z,13.23
2022-08-26T02:13:38.677Z,13.73
2022-08-26T02:19:50.370Z,13.27
2022-08-26T02:22:53.639Z,13.30
2022-08-26T02:26:04.028Z,13.77
2022-08-26T02:29:10.841Z,13.18
2022-08-26T02:32:14.931Z,13.70
2022-08-26T02:35:24.516Z,14.27
2022-08-26T02:38:29.407Z,13.70
2022-08-26T02:41:34.593Z,12.45
2022-08-26T02:44:38.386Z,13.73
2022-08-26T02:47:41.575Z,13.93
2022-08-26T02:50:45.276Z,14.50
2022-08-26T02:53:48.535Z,13.35
2022-08-26T02:56:53.935Z,12.98
2022-08-26T02:59:58.068Z,13.90
2022-08-26T03:03:03.620Z,14.43
2022-08-26T03:06:07.187Z,15.38
2022-08-26T03:09:18.479Z,15.32
2022-08-26T03:12:23.348Z,16.25
2022-08-26T03:15:27.173Z,15.27
2022-08-26T03:18:32.694Z,15.65
2022-08-26T03:21:37.270Z,15.63
2022-08-26T03:24:41.109Z,14.75
2022-08-26T03:27:48.997Z,16.33
2022-08-26T03:34:27.763Z,15.73
2022-08-26T03:37:31.258Z,15.77
2022-08-26T03:40:34.803Z,16.45
2022-08-26T03:43:41.355Z,16.35
2022-08-26T03:46:44.667Z,15.45
2022-08-26T03:49:49.479Z,15.82
2022-08-26T03:52:56.544Z,16.38
2022-08-26T03:55:59.864Z,15.13
2022-08-26T03:59:03.372Z,14.98
2022-08-26T04:02:08.447Z,14.10
2022-08-26T04:05:18.465Z,13.98
2022-08-26T04:08:21.682Z,14.52
2022-08-26T04:11:30.603Z,16.13
2022-08-26T04:14:38.093Z,14.40
2022-08-26T04:17:42.882Z,15.45
2022-08-26T04:20:47.743Z,14.80
2022-08-26T04:23:51.312Z,14.30
2022-08-26T04:26:56.347Z,15.30
2022-08-26T04:29:59.701Z,15.23
2022-08-26T04:33:04.484Z,16.45
2022-08-26T04:36:20.109Z,15.93
2022-08-26T04:39:23.615Z,16.60
2022-08-26T04:42:29.294Z,16.95
2022-08-26T04:45:34.145Z,16.83
2022-08-26T04:48:37.395Z,16.02
2022-08-26T04:51:42.183Z,16.30
2022-08-26T04:54:47.812Z,17.20
2022-08-26T04:57:51.566Z,16.63
2022-08-26T05:00:57.404Z,17.10
2022-08-26T05:04:01.898Z,16.73
2022-08-26T05:07:12.893Z,16.08
2022-08-26T05:10:16.353Z,17.45
2022-08-26T05:13:22.156Z,17.33
2022-08-26T05:16:26.427Z,13.70
2022-08-26T05:19:32.680Z,14.32
2022-08-26T05:22:40.426Z,16.60
2022-08-26T05:25:46.983Z,14.10
2022-08-26T05:28:50.267Z,17.50
2022-08-26T05:31:53.873Z,16.80
2022-08-26T05:34:59.521Z,16.35
2022-08-26T05:38:12.254Z,13.80
2022-08-26T05:41:18.175Z,16.70
2022-08-26T05:44:22.405Z,15.95
2022-08-26T05:47:26.448Z,17.33
2022-08-26T05:50:30.267Z,14.90
2022-08-26T05:53:34.880Z,17.02
2022-08-26T05:56:39.706Z,15.30
2022-08-26T05:59:43.102Z,16.27
2022-08-26T06:02:48.633Z,16.65
2022-08-26T06:05:51.928Z,15.82
2022-08-26T06:08:59.079Z,16.02
2022-08-26T06:12:02.518Z,16.05
2022-08-26T06:15:06.389Z,16.58
2022-08-26T06:18:10.534Z,15.05
2022-08-26T06:21:17.865Z,15.73
2022-08-26T06:24:40.383Z,15.27
2022-08-26T06:27:43.585Z,13.93
2022-08-26T06:30:47.398Z,13.75
2022-08-26T06:33:50.835Z,13.38
2022-08-26T06:36:54.155Z,14.15
2022-08-26T06:39:59.015Z,14.10
2022-08-26T06:43:02.369Z,13.38
2022-08-26T06:46:08.843Z,15.48
2022-08-26T06:49:13.261Z,14.52
2022-08-26T06:52:21.200Z,13.07
2022-08-26T06:55:29.604Z,13.48
2022-08-26T06:58:32.952Z,14.98
2022-08-26T07:01:43.098Z,14.25
2022-08-26T07:04:47.768Z,13.30
2022-08-26T07:07:55.748Z,14.68
2022-08-26T07:11:05.687Z,14.45
2022-08-26T07:14:09.770Z,14.38
2022-08-26T07:17:14.325Z,13.00
2022-08-26T07:20:18.287Z,13.90
2022-08-26T07:23:22.957Z,14.88
2022-08-26T07:26:30.347Z,15.40
2022-08-26T07:29:33.841Z,14.25
2022-08-26T07:32:37.788Z,14.13
2022-08-26T07:35:41.065Z,12.40
2022-08-26T07:38:45.212Z,11.57
2022-08-26T07:41:50.315Z,12.48
2022-08-26T07:44:55.446Z,13.20
2022-08-26T07:47:58.866Z,12.25
2022-08-26T07:51:02.781Z,14.32
2022-08-26T07:54:07.073Z,13.05
2022-08-26T07:57:11.910Z,12.20
2022-08-26T08:00:17.545Z,11.57
2022-08-26T08:03:21.621Z,11.52
2022-08-26T08:06:28.174Z,12.00
2022-08-26T08:09:31.669Z,12.85
2022-08-26T08:12:36.760Z,12.10
2022-08-26T08:15:40.732Z,10.27
2022-08-26T08:18:45.783Z,12.27
2022-08-26T08:21:49.509Z,10.65
2022-08-26T08:24:53.282Z,10.15
2022-08-26T08:27:57.979Z,10.65
2022-08-26T08:31:02.128Z,10.65
2022-08-26T08:34:06.687Z,10.30
2022-08-26T08:37:10.864Z,9.48
2022-08-26T08:40:18.373Z,9.55
2022-08-26T08:43:32.434Z,9.20
2022-08-26T08:46:42.634Z,9.07
2022-08-26T08:49:46.897Z,8.60
2022-08-26T08:52:57.318Z,8.88
2022-08-26T08:56:11.357Z,8.85
2022-08-26T08:59:20.246Z,8.18
2022-08-26T09:02:36.866Z,7.45
2022-08-26T09:05:48.737Z,9.85
2022-08-26T09:08:53.091Z,8.00
2022-08-26T09:11:58.757Z,9.30
2022-08-26T09:15:07.518Z,7.63
2022-08-26T09:18:24.243Z,7.70
2022-08-26T09:21:29.807Z,7.95
2022-08-26T09:24:53.036Z,8.40
2022-08-26T09:28:18.772Z,8.10
2022-08-26T09:34:28.836Z,8.82
2022-08-26T09:37:41.964Z,8.50
2022-08-26T09:40:59.181Z,8.63
2022-08-26T09:44:15.759Z,9.02
2022-08-26T09:47:24.372Z,8.45
2022-08-26T09:50:31.874Z,8.40
2022-08-26T09:53:37.775Z,8.07
2022-08-26T09:56:41.127Z,8.25
2022-08-26T09:59:45.183Z,8.88
2022-08-26T10:02:51.114Z,10.05
2022-08-26T10:06:00.424Z,9.07
2022-08-26T10:09:08.333Z,9.05
2022-08-26T10:12:17.630Z,8.23
2022-08-26T10:15:24.173Z,9.00
2022-08-26T10:18:34.087Z,9.57
2022-08-26T10:21:46.354Z,8.98
2022-08-26T10:24:58.515Z,9.30
2022-08-26T10:28:08.152Z,8.57
2022-08-26T10:31:27.810Z,8.88
2022-08-26T10:34:32.670Z,9.30
2022-08-26T10:37:39.565Z,8.07
2022-08-26T10:40:50.937Z,8.73
2022-08-26T10:43:59.972Z,8.63
2022-08-26T10:47:10.845Z,8.63
2022-08-26T10:50:18.052Z,8.43
2022-08-26T10:53:32.930Z,8.77
2022-08-26T10:56:49.418Z,8.75
2022-08-26T11:00:00.953Z,8.55
2022-08-26T11:03:25.670Z,8.52
2022-08-26T11:06:31.370Z,8.13
2022-08-26T11:09:47.466Z,9.65
2022-08-26T11:16:01.108Z,7.47
2022-08-26T11:19:05.474Z,8.15
2022-08-26T11:22:11.048Z,8.27
2022-08-26T11:25:18.286Z,8.63
2022-08-26T11:28:34.695Z,8.32
2022-08-26T11:31:55.639Z,8.75
2022-08-26T11:35:00.616Z,8.35
2022-08-26T11:38:13.372Z,8.63
2022-08-26T11:41:29.091Z,8.20
2022-08-26T11:44:41.029Z,8.30
2022-08-26T11:47:52.908Z,7.65
2022-08-26T11:50:58.139Z,7.60
2022-08-26T11:54:11.678Z,7.88
2022-08-26T11:57:17.892Z,8.00
2022-08-26T12:00:23.645Z,7.93
2022-08-26T12:03:36.250Z,7.70
2022-08-26T12:06:46.483Z,7.10
2022-08-26T12:09:56.700Z,9.40
2022-08-26T12:13:03.723Z,7.65
2022-08-26T12:16:08.049Z,8.02
2022-08-26T12:19:26.377Z,8.35
2022-08-26T12:22:36.001Z,7.97
2022-08-26T12:25:40.538Z,7.20
2022-08-26T12:28:47.482Z,7.85
2022-08-26T12:31:50.918Z,7.50
2022-08-26T12:34:55.092Z,7.72
2022-08-26T12:38:00.742Z,7.28
2022-08-26T12:41:04.443Z,7.25
2022-08-26T12:44:09.238Z,7.43
2022-08-26T12:47:39.019Z,6.60
2022-08-26T12:50:49.160Z,6.80
2022-08-26T12:53:53.484Z,6.20
2022-08-26T12:56:56.776Z,7.68
2022-08-26T13:00:43.089Z,6.60
2022-08-26T13:03:48.460Z,6.35
2022-08-26T13:07:15.833Z,7.30
2022-08-26T13:10:36.069Z,6.75
2022-08-26T13:13:40.197Z,6.75
2022-08-26T13:16:43.882Z,6.45
2022-08-26T13:19:48.711Z,6.82
2022-08-26T13:22:58.750Z,6.90
2022-08-26T13:26:02.785Z,6.53
2022-08-26T13:29:10.153Z,6.85
2022-08-26T13:32:14.139Z,6.10
2022-08-26T13:35:18.826Z,6.80
2022-08-26T13:38:32.923Z,6.95
2022-08-26T13:41:37.145Z,6.43
2022-08-26T13:44:40.620Z,6.50
2022-08-26T13:47:44.584Z,6.00
2022-08-26T13:50:49.712Z,7.13
2022-08-26T13:54:01.248Z,6.78
2022-08-26T14:00:14.617Z,4.97
2022-08-26T14:03:18.118Z,4.90
2022-08-26T14:06:25.621Z,5.38
2022-08-26T14:09:28.880Z,5.03
2022-08-26T14:12:32.126Z,8.80
2022-08-26T14:15:38.705Z,0.30
2022-08-26T14:18:47.339Z,0.10
2022-08-26T14:21:54.824Z,0.20
2022-08-26T14:25:12.630Z,0.20
2022-08-26T14:28:31.707Z,10.10
2022-08-26T14:31:36.360Z,9.55
2022-08-26T14:34:42.270Z,6.63
2022-08-26T14:37:45.919Z,14.00
2022-08-26T14:40:52.319Z,17.27
2022-08-26T14:44:00.729Z,17.65
2022-08-26T14:47:07.139Z,13.57
2022-08-26T14:50:10.975Z,11.63
2022-08-26T14:53:33.861Z,10.35
2022-08-26T14:56:38.859Z,13.43
2022-08-26T14:59:49.951Z,10.95
2022-08-26T15:02:53.730Z,10.35
2022-08-26T15:05:57.703Z,8.85
2022-08-26T15:09:01.028Z,8.80
2022-08-26T15:12:05.155Z,7.32
2022-08-26T15:15:12.926Z,7.80
2022-08-26T15:18:34.631Z,9.02
2022-08-26T15:21:38.273Z,9.52
2022-08-26T15:24:41.767Z,8.00
2022-08-26T15:27:45.289Z,8.98
2022-08-26T15:34:27.550Z,7.88
2022-08-26T15:40:36.861Z,7.10
2022-08-26T15:43:40.124Z,7.38
2022-08-26T15:46:43.921Z,7.03
2022-08-26T15:49:48.831Z,8.10
2022-08-26T15:52:52.412Z,9.15
2022-08-26T15:55:56.647Z,8.75
2022-08-26T15:59:01.656Z,9.10
2022-08-26T16:02:05.194Z,9.15
2022-08-26T16:05:10.778Z,9.20
2022-08-26T16:08:15.465Z,8.68
2022-08-26T16:11:19.879Z,10.45
2022-08-26T16:14:24.006Z,9.38
2022-08-26T16:17:27.569Z,9.80
2022-08-26T16:20:37.511Z,9.05
2022-08-26T16:23:43.258Z,9.15
2022-08-26T16:26:49.635Z,9.10
2022-08-26T16:29:53.087Z,8.38
2022-08-26T16:32:58.117Z,9.25
2022-08-26T16:36:03.063Z,8.82
2022-08-26T16:39:07.718Z,12.23
2022-08-26T16:42:10.980Z,9.35
2022-08-26T16:45:14.404Z,8.55
2022-08-26T16:48:18.089Z,9.68
2022-08-26T16:51:26.883Z,10.38
2022-08-26T16:54:30.099Z,10.25
2022-08-26T16:57:34.419Z,9.98
2022-08-26T17:00:37.672Z,11.32
2022-08-26T17:03:41.065Z,10.63
2022-08-26T17:06:45.726Z,9.73
2022-08-26T17:09:48.922Z,10.73
2022-08-26T17:12:52.648Z,11.60
2022-08-26T17:15:58.480Z,8.90
2022-08-26T17:19:04.516Z,10.95
2022-08-26T17:22:09.595Z,12.88
2022-08-26T17:25:14.975Z,12.15
2022-08-26T17:28:18.450Z,13.23
2022-08-26T17:31:23.354Z,11.48
2022-08-26T17:34:26.913Z,12.48
2022-08-26T17:37:31.503Z,16.17
2022-08-26T17:40:35.054Z,14.18
2022-08-26T17:43:38.487Z,13.57
2022-08-26T17:46:41.713Z,13.20
2022-08-26T17:49:45.165Z,11.98
2022-08-26T17:52:50.662Z,11.68
2022-08-26T17:55:54.190Z,13.43
2022-08-26T17:59:03.948Z,14.43
2022-08-26T18:02:07.373Z,12.02
2022-08-26T18:05:12.039Z,14.60
2022-08-26T18:08:16.742Z,14.43
2022-08-26T18:11:22.960Z,13.52
2022-08-26T18:14:26.206Z,12.20
2022-08-26T18:17:29.319Z,13.20
2022-08-26T18:20:32.618Z,12.63
2022-08-26T18:23:37.600Z,12.55
2022-08-26T18:26:47.927Z,10.90
2022-08-26T18:29:51.626Z,13.70
2022-08-26T18:32:54.837Z,13.85
2022-08-26T18:35:58.215Z,13.50
2022-08-26T18:39:04.158Z,16.13
2022-08-26T18:42:08.036Z,16.42
2022-08-26T18:45:16.201Z,17.00
2022-08-26T18:48:19.842Z,17.23
2022-08-26T18:51:25.301Z,14.77
2022-08-26T18:54:30.371Z,14.18
2022-08-26T18:57:33.716Z,13.13
2022-08-26T19:00:37.194Z,14.93
2022-08-26T19:03:40.586Z,18.92
2022-08-26T19:06:44.834Z,19.33
2022-08-26T19:09:53.819Z,18.95
2022-08-26T19:13:00.583Z,17.50
2022-08-26T19:16:05.937Z,17.85
2022-08-26T19:19:09.219Z,17.45
2022-08-26T19:22:12.690Z,20.27
2022-08-26T19:25:18.402Z,20.58
2022-08-26T19:28:23.048Z,17.83
2022-08-26T19:31:26.963Z,20.63
2022-08-26T19:34:30.557Z,19.15
2022-08-26T19:37:33.927Z,17.98
2022-08-26T19:40:39.600Z,19.58
2022-08-26T19:43:43.655Z,19.33
2022-08-26T19:46:49.539Z,20.45
2022-08-26T19:49:54.858Z,21.77
2022-08-26T19:52:58.418Z,21.42
2022-08-26T19:56:02.971Z,17.20
2022-08-26T19:59:06.626Z,19.83
2022-08-26T20:02:11.243Z,20.45
2022-08-26T20:05:16.342Z,27.17
2022-08-26T20:08:22.086Z,19.15
2022-08-26T20:11:27.383Z,21.95
2022-08-26T20:14:30.992Z,18.70
2022-08-26T20:17:34.342Z,21.58
2022-08-26T20:20:54.976Z,20.42
2022-08-26T20:24:02.005Z,20.70
2022-08-26T20:27:08.240Z,21.58
2022-08-26T20:30:12.666Z,22.48
2022-08-26T20:33:16.159Z,22.10
2022-08-26T20:36:21.423Z,24.05
2022-08-26T20:39:28.796Z,22.63
2022-08-26T20:42:34.533Z,19.98
2022-08-26T20:45:37.864Z,18.55
2022-08-26T20:48:43.585Z,14.98
2022-08-26T20:51:51.422Z,14.48
2022-08-26T20:54:55.336Z,13.75
2022-08-26T20:58:01.783Z,13.18
2022-08-26T21:01:08.040Z,14.45
2022-08-26T21:04:13.946Z,15.85
2022-08-26T21:07:17.116Z,12.40
2022-08-26T21:10:21.392Z,15.05
2022-08-26T21:13:35.758Z,11.65
2022-08-26T21:16:47.763Z,12.70
2022-08-26T21:19:51.095Z,11.95
2022-08-26T21:22:54.296Z,12.02
2022-08-26T21:25:57.705Z,14.75
2022-08-26T21:29:03.438Z,17.08
2022-08-26T21:34:42.939Z,14.20
2022-08-26T21:37:46.377Z,12.30
2022-08-26T21:40:58.569Z,10.70
2022-08-26T21:44:01.899Z,11.30
2022-08-26T21:47:05.574Z,10.38
2022-08-26T21:50:10.983Z,9.63
2022-08-26T21:53:15.478Z,10.35
2022-08-26T21:56:20.302Z,11.95
2022-08-26T21:59:23.681Z,10.90
2022-08-26T22:02:26.975Z,11.68
2022-08-26T22:05:32.117Z,9.98
2022-08-26T22:08:35.575Z,10.65
2022-08-26T22:11:38.877Z,9.88
2022-08-26T22:14:42.248Z,10.30
2022-08-26T22:17:45.499Z,11.68
2022-08-26T22:20:51.923Z,11.18
2022-08-26T22:23:58.087Z,11.38
2022-08-26T22:27:01.742Z,10.02
2022-08-26T22:30:05.816Z,9.88
2022-08-26T22:33:12.332Z,8.47
2022-08-26T22:36:23.753Z,9.65
2022-08-26T22:39:27.680Z,10.77
2022-08-26T22:42:30.964Z,10.85
2022-08-26T22:45:34.492Z,11.02
2022-08-26T22:48:39.408Z,10.65
2022-08-26T22:51:44.118Z,10.88
2022-08-26T22:54:49.085Z,11.38
2022-08-26T22:57:53.338Z,11.05
2022-08-26T23:00:57.840Z,7.30
2022-08-26T23:04:02.792Z,7.70
2022-08-26T23:07:08.002Z,9.57
2022-08-26T23:10:11.705Z,7.85
2022-08-26T23:13:16.284Z,9.18
2022-08-26T23:16:19.629Z,10.07
2022-08-26T23:19:24.341Z,10.75
2022-08-26T23:22:29.688Z,9.30
2022-08-26T23:25:33.533Z,11.38
2022-08-26T23:28:38.166Z,11.75
2022-08-26T23:31:43.278Z,10.88
2022-08-26T23:35:01.910Z,11.63
2022-08-26T23:38:05.740Z,11.05
2022-08-26T23:41:09.619Z,11.15
2022-08-26T23:44:13.407Z,10.77
2022-08-26T23:47:16.987Z,12.15
2022-08-26T23:50:45.944Z,12.85
2022-08-26T23:53:48.257Z,12.00
2022-08-26T23:56:51.730Z,13.32
2022-08-26T23:59:55.031Z,13.07
